Time;durP1;ratioP1;P1;durP2;ratioP2;P2;SDS_P1;SDS_P2;PMS_P1;PMS_P2;Temp;Humidity;BMP_temperature;BMP_pressure;BME280_temperature;BME280_humidity;BME280_pressure;Samples;Min_cycle;Max_cycle;Signal;HPM_P1;HPM_P2
2022/04/14 00:01:34;;;;;;;13.70;12.35;;;;;;;14.65;53.84;95283.13;4995155;28;20022;-66
2022/04/14 00:03:59;;;;;;;17.33;11.57;;;;;;;14.60;53.76;95276.06;4995340;28;20235;-65
2022/04/14 00:06:25;;;;;;;12.50;11.25;;;;;;;14.51;54.17;95269.97;4995354;28;20023;-65
2022/04/14 00:08:53;;;;;;;13.93;11.82;;;;;;;14.62;54.25;95305.16;4995199;28;20030;-65
2022/04/14 00:11:19;;;;;;;12.25;10.95;;;;;;;14.65;54.22;95299.19;4994869;28;20161;-65
2022/04/14 00:13:45;;;;;;;12.48;11.07;;;;;;;14.57;54.04;95290.09;4995358;28;20034;-65
2022/04/14 00:16:10;;;;;;;12.27;11.05;;;;;;;14.60;54.27;95308.19;4995153;28;20379;-65
2022/04/14 00:18:35;;;;;;;11.57;10.43;;;;;;;14.55;54.14;95298.44;4995016;28;20033;-65
2022/04/14 00:21:01;;;;;;;11.45;10.32;;;;;;;14.51;54.61;95305.56;4994853;28;20135;-66
2022/04/14 00:23:26;;;;;;;12.80;11.48;;;;;;;14.51;54.46;95302.88;4995051;28;20467;-67
2022/04/14 00:25:52;;;;;;;16.35;11.57;;;;;;;14.52;54.31;95311.69;4994933;28;20117;-67
2022/04/14 00:28:17;;;;;;;13.98;11.30;;;;;;;14.39;54.14;95294.75;4995071;28;20027;-66
2022/04/14 00:30:42;;;;;;;12.60;11.30;;;;;;;14.52;54.15;95315.16;4994381;28;20026;-65
2022/04/14 00:33:08;;;;;;;16.95;13.77;;;;;;;14.47;54.24;95299.28;4995031;28;20468;-66
2022/04/14 00:35:33;;;;;;;20.63;12.30;;;;;;;14.35;54.11;95293.81;4994928;28;20022;-66
2022/04/14 00:37:59;;;;;;;14.10;12.50;;;;;;;14.48;54.46;95321.47;4994756;28;20019;-66
2022/04/14 00:40:24;;;;;;;14.93;13.10;;;;;;;14.39;54.31;95310.00;4994313;28;20105;-66
2022/04/14 00:42:50;;;;;;;14.73;12.55;;;;;;;14.35;54.51;95301.84;4994615;28;20026;-66
2022/04/14 00:45:15;;;;;;;23.60;14.73;;;;;;;14.37;54.34;95304.19;4993242;28;20030;-66
2022/04/14 00:47:41;;;;;;;17.40;12.68;;;;;;;14.40;54.29;95315.03;4994579;28;20097;-66
2022/04/14 00:50:07;;;;;;;14.25;12.85;;;;;;;14.27;54.34;95302.66;4994576;28;20069;-65
2022/04/14 00:52:32;;;;;;;13.55;12.15;;;;;;;14.15;54.44;95294.56;4994342;28;20467;-65
2022/04/14 00:54:57;;;;;;;16.45;13.85;;;;;;;14.19;54.59;95293.59;4994427;28;20032;-66
2022/04/14 00:57:23;;;;;;;14.52;12.48;;;;;;;14.21;54.55;95311.97;4992942;28;20019;-66
2022/04/14 00:59:49;;;;;;;17.08;13.77;;;;;;;14.14;54.51;95295.66;4994406;28;20030;-65
2022/04/14 01:02:14;;;;;;;20.05;14.77;;;;;;;14.26;54.64;95322.50;4993928;28;20050;-65
2022/04/14 01:04:41;;;;;;;20.52;15.25;;;;;;;13.99;54.50;95284.41;4994441;28;20054;-65
2022/04/14 01:07:07;;;;;;;18.73;14.98;;;;;;;14.07;54.75;95298.03;4993903;28;20497;-66
2022/04/14 01:09:34;;;;;;;15.38;13.85;;;;;;;13.99;54.59;95297.75;4994223;28;20027;-65
2022/04/14 01:12:00;;;;;;;15.90;14.10;;;;;;;14.21;54.95;95338.75;4993746;28;20027;-65
2022/04/14 01:14:30;;;;;;;19.10;15.63;;;;;;;14.19;54.79;95327.59;4992711;28;20052;-66
2022/04/14 01:16:58;;;;;;;17.05;14.68;;;;;;;14.05;55.31;95315.19;4993995;28;20038;-65
2022/04/14 01:19:23;;;;;;;18.92;14.38;;;;;;;13.97;55.15;95307.19;4994075;28;20026;-66
2022/04/14 01:22:06;;;;;;;19.90;16.15;;;;;;;14.17;55.33;95343.94;4992548;28;20081;-66
2022/04/14 01:24:31;;;;;;;20.65;16.52;;;;;;;14.12;55.15;95332.63;4994084;28;20038;-64
2022/04/14 01:26:59;;;;;;;17.13;15.30;;;;;;;13.99;55.32;95316.47;4992549;28;20022;-66
2022/04/14 01:29:26;;;;;;;18.30;16.13;;;;;;;14.04;55.37;95326.22;4993758;28;20080;-64
2022/04/14 01:31:53;;;;;;;21.52;15.77;;;;;;;14.03;55.48;95327.34;4992251;28;20068;-65
2022/04/14 01:34:19;;;;;;;17.95;15.48;;;;;;;14.03;55.21;95333.47;4993620;28;20026;-65
2022/04/14 01:36:45;;;;;;;16.95;15.23;;;;;;;14.01;55.06;95332.22;4992439;28;20085;-65
2022/04/14 01:39:11;;;;;;;20.10;16.00;;;;;;;13.99;55.31;95324.50;4993680;28;20030;-65
2022/04/14 01:41:46;;;;;;;21.85;17.65;;;;;;;14.03;55.42;95340.72;4993186;28;20029;-65
2022/04/14 01:44:11;;;;;;;20.42;16.60;;;;;;;13.98;55.41;95336.31;4993535;28;20464;-65
2022/04/14 01:46:38;;;;;;;18.52;16.27;;;;;;;13.84;55.17;95333.06;4992325;28;20073;-65
2022/04/14 01:49:03;;;;;;;24.52;16.05;;;;;;;13.87;55.61;95340.44;4993618;28;20082;-65
2022/04/14 01:51:30;;;;;;;22.23;16.95;;;;;;;13.89;55.59;95354.28;4991759;28;20030;-66
2022/04/14 01:53:56;;;;;;;21.58;16.85;;;;;;;13.78;55.78;95331.66;4993299;28;20105;-66
2022/04/14 01:56:21;;;;;;;21.67;17.38;;;;;;;13.79;55.64;95339.34;4993474;28;20600;-66
2022/04/14 01:58:50;;;;;;;22.13;17.27;;;;;;;13.77;55.48;95330.09;4993295;28;20041;-66
2022/04/14 02:01:16;;;;;;;21.48;17.85;;;;;;;13.91;55.90;95353.94;4992826;28;20104;-66
2022/04/14 02:03:41;;;;;;;26.00;18.05;;;;;;;13.75;55.73;95340.31;4993275;28;20444;-66
2022/04/14 02:06:07;;;;;;;26.95;17.63;;;;;;;13.80;55.81;95334.78;4993325;28;20117;-67
2022/04/14 02:08:32;;;;;;;22.63;18.13;;;;;;;13.77;55.83;95335.44;4991806;28;20076;-67
2022/04/14 02:10:58;;;;;;;20.95;17.33;;;;;;;13.75;56.06;95334.97;4991454;28;20030;-65
2022/04/14 02:13:23;;;;;;;23.75;18.38;;;;;;;13.81;55.95;95335.56;4992957;28;20026;-65
2022/04/14 02:15:49;;;;;;;25.15;19.30;;;;;;;13.75;56.13;95340.31;4992949;28;20387;-65
2022/04/14 02:18:14;;;;;;;24.25;17.80;;;;;;;13.79;56.13;95338.56;4992246;28;20027;-65
2022/04/14 02:20:39;;;;;;;21.08;17.02;;;;;;;13.76;56.15;95339.19;4992479;28;20022;-67
2022/04/14 02:23:05;;;;;;;25.50;17.75;;;;;;;13.77;56.16;95346.16;4992654;28;20022;-66
2022/04/14 02:25:30;;;;;;;25.02;19.35;;;;;;;13.67;56.39;95325.09;4992818;28;20023;-66
2022/04/14 02:27:55;;;;;;;25.17;18.35;;;;;;;13.80;56.20;95340.13;4992741;28;20384;-65
2022/04/14 02:30:21;;;;;;;26.83;18.20;;;;;;;13.74;56.18;95334.19;4992066;28;20046;-66
2022/04/14 02:32:47;;;;;;;26.38;18.48;;;;;;;13.81;56.20;95343.59;4992732;28;20387;-65
2022/04/14 02:35:12;;;;;;;20.83;18.20;;;;;;;13.78;56.17;95345.81;4992685;28;20089;-66
2022/04/14 02:37:38;;;;;;;27.35;19.63;;;;;;;13.75;56.12;95343.75;4992385;28;20503;-65
2022/04/14 02:40:04;;;;;;;25.13;20.40;;;;;;;13.79;55.99;95346.59;4991851;28;20034;-65
2022/04/14 02:42:30;;;;;;;24.30;19.25;;;;;;;13.69;56.13;95334.34;4991232;28;20496;-65
2022/04/14 02:44:55;;;;;;;22.67;19.27;;;;;;;13.43;56.12;95299.66;4991097;28;20030;-65
2022/04/14 02:47:21;;;;;;;27.25;20.40;;;;;;;13.72;55.93;95346.31;4992426;28;20022;-65
2022/04/14 02:49:46;;;;;;;27.50;18.33;;;;;;;13.48;56.37;95312.06;4992467;28;20034;-65
2022/04/14 02:52:12;;;;;;;28.02;20.63;;;;;;;13.57;56.09;95325.44;4991895;28;20026;-65
2022/04/14 02:54:40;;;;;;;33.53;22.00;;;;;;;13.63;56.14;95342.88;4991031;28;20116;-65
2022/04/14 02:57:06;;;;;;;26.20;20.33;;;;;;;13.64;56.31;95352.44;4990893;28;20026;-66
2022/04/14 02:59:33;;;;;;;23.80;18.70;;;;;;;13.65;56.18;95360.13;4990908;28;20026;-65
2022/04/14 03:01:59;;;;;;;21.73;18.17;;;;;;;13.52;56.12;95369.13;4990371;28;20027;-65
2022/04/14 03:04:26;;;;;;;27.33;20.27;;;;;;;13.45;56.35;95342.88;4990736;28;20027;-65
2022/04/14 03:06:52;;;;;;;22.40;18.50;;;;;;;13.45;56.70;95361.59;4992012;28;20022;-66
2022/04/14 03:09:17;;;;;;;24.00;18.88;;;;;;;13.28;57.12;95364.28;4990597;28;20126;-65
2022/04/14 03:11:42;;;;;;;23.67;17.77;;;;;;;13.22;56.98;95341.50;4991906;28;20091;-65
2022/04/14 03:14:08;;;;;;;26.23;19.17;;;;;;;13.33;56.71;95352.66;4991865;28;20464;-65
2022/04/14 03:16:33;;;;;;;22.23;17.27;;;;;;;12.87;57.59;95330.00;4990859;28;20026;-65
2022/04/14 03:18:58;;;;;;;20.95;17.75;;;;;;;13.07;57.73;95355.31;4991978;28;20053;-66
2022/04/14 03:21:24;;;;;;;29.05;18.42;;;;;;;13.11;57.71;95354.34;4991506;28;20026;-65
2022/04/14 03:23:50;;;;;;;30.63;20.42;;;;;;;13.29;57.28;95355.16;4991837;28;20041;-65
2022/04/14 03:26:16;;;;;;;22.50;16.58;;;;;;;13.42;57.22;95369.47;4990364;28;20073;-65
2022/04/14 03:28:41;;;;;;;19.65;17.40;;;;;;;13.34;57.15;95372.91;4991801;28;20085;-65
2022/04/14 03:31:06;;;;;;;23.80;18.40;;;;;;;13.15;58.19;95367.84;4991518;28;20502;-65
2022/04/14 03:33:32;;;;;;;23.13;17.77;;;;;;;13.17;58.16;95365.66;4991899;28;20084;-65
2022/04/14 03:35:57;;;;;;;19.30;16.90;;;;;;;13.21;57.74;95362.09;4990341;28;20030;-66
2022/04/14 03:38:23;;;;;;;20.92;17.25;;;;;;;13.26;57.64;95363.81;4991854;28;20089;-66
2022/04/14 03:40:48;;;;;;;31.52;18.52;;;;;;;13.25;57.58;95356.88;4991360;28;20019;-65
2022/04/14 03:43:16;;;;;;;22.88;17.98;;;;;;;13.38;57.35;95377.31;4991813;28;20026;-65
2022/04/14 03:45:41;;;;;;;21.35;17.63;;;;;;;13.38;57.35;95376.53;4991632;28;20182;-65
2022/04/14 03:48:06;;;;;;;21.08;18.00;;;;;;;13.24;57.53;95374.00;4991663;28;20034;-65
2022/04/14 03:50:32;;;;;;;22.55;16.63;;;;;;;13.39;57.43;95386.91;4989892;28;20478;-66
2022/04/14 03:52:57;;;;;;;22.98;18.15;;;;;;;13.21;57.38;95364.75;4990207;28;20034;-65
2022/04/14 03:55:22;;;;;;;25.10;17.33;;;;;;;13.29;57.39;95389.09;4991624;28;20027;-65
2022/04/14 03:57:48;;;;;;;28.95;20.17;;;;;;;13.17;57.66;95371.78;4991580;28;20030;-66
2022/04/14 04:00:13;;;;;;;18.20;16.35;;;;;;;13.06;57.58;95359.06;4991219;28;20027;-66
2022/04/14 04:02:39;;;;;;;22.33;16.70;;;;;;;13.28;57.11;95391.00;4991269;28;20027;-66
2022/04/14 04:05:05;;;;;;;22.42;17.48;;;;;;;13.29;57.56;95399.78;4990666;28;20027;-66
2022/04/14 04:07:31;;;;;;;27.52;17.13;;;;;;;13.09;57.11;95363.78;4991341;28;20657;-66
2022/04/14 04:09:56;;;;;;;22.52;17.85;;;;;;;13.27;57.53;95397.44;4991417;28;20106;-65
2022/04/14 04:12:22;;;;;;;24.40;18.15;;;;;;;13.05;57.30;95368.97;4990944;28;20030;-65
2022/04/14 04:14:48;;;;;;;22.65;17.35;;;;;;;13.24;57.25;95403.41;4991167;28;20026;-65
2022/04/14 04:17:15;;;;;;;33.33;17.67;;;;;;;13.11;57.41;95390.97;4991494;28;20026;-65
2022/04/14 04:19:42;;;;;;;20.10;16.58;;;;;;;13.04;57.39;95380.72;4991227;28;20034;-65
2022/04/14 04:22:08;;;;;;;22.10;18.40;;;;;;;13.18;57.80;95400.06;4990985;28;20026;-65
2022/04/14 04:24:33;;;;;;;28.25;19.05;;;;;;;13.17;57.26;95398.50;4991221;28;20092;-65
2022/04/14 04:26:58;;;;;;;28.67;21.65;;;;;;;13.19;57.29;95400.84;4989917;28;20027;-65
2022/04/14 04:29:24;;;;;;;21.88;17.20;;;;;;;13.02;57.06;95390.94;4991534;28;20022;-64
2022/04/14 04:31:49;;;;;;;28.77;17.65;;;;;;;13.15;57.13;95407.91;4990834;28;20023;-65
2022/04/14 04:34:14;;;;;;;21.90;17.30;;;;;;;13.21;57.24;95414.69;4991137;28;20109;-65
2022/04/14 04:36:40;;;;;;;29.55;19.23;;;;;;;13.26;57.32;95417.25;4991118;28;20097;-64
2022/04/14 04:39:05;;;;;;;30.05;16.65;;;;;;;13.25;57.15;95405.75;4991178;28;20054;-65
2022/04/14 04:41:31;;;;;;;22.60;16.02;;;;;;;13.14;57.29;95406.34;4993053;28;20028;-64
2022/04/14 04:43:56;;;;;;;17.13;15.40;;;;;;;13.18;57.66;95408.09;4993130;28;20073;-64
2022/04/14 04:46:22;;;;;;;30.40;16.65;;;;;;;13.29;57.49;95413.94;4994570;28;20030;-67
2022/04/14 04:48:47;;;;;;;21.52;14.88;;;;;;;13.44;57.65;95426.81;4994683;28;20109;-65
2022/04/14 04:51:12;;;;;;;23.50;15.85;;;;;;;13.45;57.32;95423.03;4994164;28;20049;-65
2022/04/14 04:53:38;;;;;;;20.10;14.38;;;;;;;13.61;57.33;95417.22;4993263;28;20029;-65
2022/04/14 04:56:04;;;;;;;23.65;13.50;;;;;;;13.71;57.41;95427.59;4994760;28;20045;-66
2022/04/14 04:58:30;;;;;;;14.82;13.30;;;;;;;13.71;57.40;95412.34;4994347;28;20109;-66
2022/04/14 05:00:56;;;;;;;18.63;13.57;;;;;;;13.89;57.56;95433.72;4992606;28;20022;-66
2022/04/14 05:03:21;;;;;;;14.55;13.20;;;;;;;14.00;57.54;95438.41;4993205;28;20096;-66
2022/04/14 05:05:47;;;;;;;14.43;12.90;;;;;;;14.04;57.50;95427.88;4992927;28;20027;-65
2022/04/14 05:08:12;;;;;;;20.10;12.55;;;;;;;14.02;57.13;95404.13;4994312;28;20378;-65
2022/04/14 05:10:38;;;;;;;13.75;12.18;;;;;;;14.23;57.00;95416.81;4993872;28;20081;-65
2022/04/14 05:13:04;;;;;;;12.70;11.43;;;;;;;14.34;56.62;95427.94;4994024;28;20073;-66
2022/04/14 05:15:29;;;;;;;13.25;12.02;;;;;;;14.36;56.43;95418.47;4992785;28;20112;-66
2022/04/14 05:17:55;;;;;;;11.02;9.93;;;;;;;14.57;56.52;95438.09;4993998;28;20189;-65
2022/04/14 05:20:20;;;;;;;16.48;11.85;;;;;;;14.36;56.16;95399.75;4992234;28;20041;-64
2022/04/14 05:22:46;;;;;;;11.38;9.23;;;;;;;14.76;56.59;95439.59;4993829;28;20035;-67
2022/04/14 05:25:20;;;;;;;11.98;9.98;;;;;;;14.79;56.27;95422.88;4993754;28;20026;-66
2022/04/14 05:27:45;;;;;;;10.38;9.35;;;;;;;15.09;55.83;95435.13;4992729;28;20495;-66
2022/04/14 05:30:11;;;;;;;12.98;10.50;;;;;;;15.12;54.94;95427.56;4993760;28;20109;-70
2022/04/14 05:32:38;;;;;;;11.95;10.45;;;;;;;15.39;54.59;95434.31;4993919;28;20023;-70
2022/04/14 05:35:06;;;;;;;13.13;11.77;;;;;;;15.34;54.61;95411.16;4993279;28;20072;-68
2022/04/14 05:37:32;;;;;;;26.20;11.07;;;;;;;15.57;54.01;95444.59;4993837;28;20207;-67
2022/04/14 05:39:57;;;;;;;23.33;10.45;;;;;;;15.49;53.70;95429.34;4993777;28;20061;-70
2022/04/14 05:42:23;;;;;;;24.20;11.25;;;;;;;15.44;53.90;95437.59;4993639;28;20110;-69
2022/04/14 05:44:48;;;;;;;20.48;11.52;;;;;;;15.56;53.39;95431.53;4993606;28;20026;-70
2022/04/14 05:47:14;;;;;;;20.52;11.52;;;;;;;15.53;53.95;95424.13;4993465;28;20385;-67
2022/04/14 05:49:39;;;;;;;15.63;11.32;;;;;;;15.29;53.84;95403.31;4993582;28;20032;-68
2022/04/14 05:52:05;;;;;;;28.17;12.35;;;;;;;15.10;54.83;95417.19;4992128;28;20033;-67
2022/04/14 05:54:31;;;;;;;16.95;11.20;;;;;;;15.01;54.62;95397.72;4993562;28;20034;-67
2022/04/14 05:56:56;;;;;;;19.30;11.18;;;;;;;14.99;55.24;95427.47;4993958;28;20025;-69
2022/04/14 05:59:22;;;;;;;18.52;11.07;;;;;;;15.25;54.40;95411.25;4995027;28;20062;-73
2022/04/14 06:01:47;;;;;;;20.40;11.25;;;;;;;15.09;55.33;95426.31;4992815;28;20030;-69
2022/04/14 06:04:13;;;;;;;24.48;12.45;;;;;;;15.18;55.36;95471.81;4991797;28;20030;-69
2022/04/14 06:06:38;;;;;;;19.90;10.93;;;;;;;14.74;55.23;95388.25;4991949;28;20375;-70
2022/04/14 06:09:04;;;;;;;15.82;10.27;;;;;;;15.77;54.25;95450.31;4993153;28;20030;-70
2022/04/14 06:11:30;;;;;;;13.35;10.00;;;;;;;15.63;53.64;95418.38;4993071;28;20659;-70
2022/04/14 06:13:56;;;;;;;12.18;9.45;;;;;;;15.51;54.49;95432.50;4993141;28;20483;-69
2022/04/14 06:16:22;;;;;;;11.88;10.60;;;;;;;15.45;55.14;95427.63;4993094;28;20041;-66
2022/04/14 06:18:47;;;;;;;18.85;9.80;;;;;;;15.09;54.63;95411.03;4992910;28;20109;-70
2022/04/14 06:21:13;;;;;;;12.85;9.32;;;;;;;15.79;54.02;95443.47;4992666;28;20105;-69
2022/04/14 06:23:38;;;;;;;10.05;9.00;;;;;;;16.34;52.32;95439.63;4992601;28;20484;-67
2022/04/14 06:26:04;;;;;;;11.43;9.18;;;;;;;16.18;52.97;95441.38;4992346;28;20026;-66
2022/04/14 06:28:31;;;;;;;19.13;9.20;;;;;;;16.23;52.17;95435.81;4992852;28;20177;-67
2022/04/14 06:30:57;;;;;;;20.23;9.25;;;;;;;15.76;52.50;95381.66;4992283;28;20026;-66
2022/04/14 06:33:23;;;;;;;14.80;10.43;;;;;;;16.08;51.86;95396.97;4992546;28;20182;-68
2022/04/14 06:35:49;;;;;;;14.90;9.40;;;;;;;16.36;52.11;95448.13;4992426;28;20033;-68
2022/04/14 06:38:16;;;;;;;10.02;8.40;;;;;;;15.81;52.21;95406.38;4992596;28;20027;-68
2022/04/14 06:40:41;;;;;;;11.32;8.70;;;;;;;15.92;52.61;95425.53;4992023;28;20033;-68
2022/04/14 06:43:07;;;;;;;11.32;9.38;;;;;;;15.51;52.84;95373.53;4992381;28;20388;-67
2022/04/14 06:45:33;;;;;;;12.23;8.75;;;;;;;16.23;52.68;95470.69;4990873;28;20037;-66
2022/04/14 06:47:58;;;;;;;14.57;8.98;;;;;;;15.94;52.32;95396.47;4992226;28;20026;-66
2022/04/14 06:50:24;;;;;;;10.93;8.65;;;;;;;16.41;51.85;95449.81;4991852;28;20030;-67
2022/04/14 06:52:51;;;;;;;14.63;9.35;;;;;;;16.49;51.73;95427.44;4992197;28;20034;-66
2022/04/14 06:55:16;;;;;;;9.68;8.73;;;;;;;16.32;51.21;95403.47;4991994;28;20436;-66
2022/04/14 06:57:42;;;;;;;9.98;8.82;;;;;;;16.80;50.84;95447.66;4992149;28;20112;-67
2022/04/14 07:00:08;;;;;;;14.27;8.63;;;;;;;16.17;52.43;95430.97;4991888;28;20060;-67
2022/04/14 07:02:35;;;;;;;9.75;8.77;;;;;;;16.47;51.00;95410.88;4991922;28;20033;-67
2022/04/14 07:05:00;;;;;;;10.25;9.15;;;;;;;16.59;50.73;95416.28;4991668;28;20048;-66
2022/04/14 07:07:26;;;;;;;10.95;9.77;;;;;;;16.84;50.40;95414.41;4991837;28;20527;-67
2022/04/14 07:09:51;;;;;;;14.52;8.98;;;;;;;16.52;50.10;95391.09;4991597;28;20072;-67
2022/04/14 07:12:16;;;;;;;14.25;9.75;;;;;;;16.11;49.92;95406.22;4991394;28;20118;-67
2022/04/14 07:14:42;;;;;;;12.88;9.70;;;;;;;16.55;49.59;95407.31;4991866;28;20022;-66
2022/04/14 07:17:07;;;;;;;13.80;9.98;;;;;;;16.87;49.32;95477.41;4991869;28;20385;-66
2022/04/14 07:19:33;;;;;;;27.35;10.45;;;;;;;16.33;48.98;95386.28;4992022;28;20030;-66
2022/04/14 07:21:58;;;;;;;11.15;9.32;;;;;;;17.48;48.18;95471.22;4991520;28;20526;-70
2022/04/14 07:24:24;;;;;;;10.50;9.18;;;;;;;16.99;47.91;95377.97;4991753;28;20030;-68
2022/04/14 07:26:49;;;;;;;11.43;9.57;;;;;;;18.00;46.54;95459.63;4990663;28;20471;-68
2022/04/14 07:29:14;;;;;;;13.82;10.23;;;;;;;17.24;47.16;95380.63;4991782;28;20631;-68
2022/04/14 07:31:42;;;;;;;13.10;10.02;;;;;;;16.96;47.83;95420.88;4991172;28;20069;-67
2022/04/14 07:34:10;;;;;;;13.65;9.95;;;;;;;17.51;47.32;95482.06;4991942;28;20101;-67
2022/04/14 07:36:35;;;;;;;14.40;10.38;;;;;;;18.30;45.73;95451.97;4991803;28;20102;-67
2022/04/14 07:39:01;;;;;;;11.85;9.68;;;;;;;18.09;45.07;95404.53;4990372;28;20129;-67
2022/04/14 07:41:26;;;;;;;19.50;10.20;;;;;;;17.25;46.63;95401.00;4991346;28;20026;-66
2022/04/14 07:43:53;;;;;;;13.73;9.48;;;;;;;17.74;46.46;95460.06;4991263;28;20479;-65
2022/04/14 07:46:19;;;;;;;14.25;9.80;;;;;;;17.43;47.08;95437.25;4991308;28;20022;-65
2022/04/14 07:48:44;;;;;;;15.38;9.63;;;;;;;18.04;46.94;95488.22;4991440;28;20395;-65
2022/04/14 07:51:10;;;;;;;15.85;11.15;;;;;;;17.52;46.59;95447.91;4989767;28;20034;-65
2022/04/14 07:53:37;;;;;;;15.13;10.15;;;;;;;17.65;45.95;95414.44;4991459;28;20058;-65
2022/04/14 07:56:04;;;;;;;17.67;10.75;;;;;;;17.66;45.44;95389.91;4991405;28;20026;-66
2022/04/14 07:58:29;;;;;;;14.93;10.23;;;;;;;18.03;45.93;95453.56;4989974;28;20138;-65
2022/04/14 08:00:55;;;;;;;14.98;9.95;;;;;;;18.64;44.17;95404.72;4990997;28;20117;-66
2022/04/14 08:03:21;;;;;;;16.98;11.27;;;;;;;18.38;44.08;95432.19;4990273;28;20105;-66
2022/04/14 08:05:48;;;;;;;17.77;10.25;;;;;;;18.14;44.72;95441.19;4990091;28;20472;-65
2022/04/14 08:08:16;;;;;;;13.73;10.57;;;;;;;18.25;44.56;95422.59;4991237;28;20050;-64
2022/04/14 08:10:46;;;;;;;14.43;11.13;;;;;;;17.92;44.82;95450.59;4989501;28;20041;-65
2022/04/14 08:13:12;;;;;;;16.77;11.50;;;;;;;18.44;43.73;95442.34;4991315;28;20049;-66
2022/04/14 08:15:39;;;;;;;16.35;11.30;;;;;;;18.32;44.30;95449.72;4992055;28;20026;-66
2022/04/14 08:18:06;;;;;;;16.70;10.20;;;;;;;18.36;44.35;95474.81;4994908;28;20030;-65
2022/04/14 08:20:34;;;;;;;15.15;10.45;;;;;;;18.85;43.41;95443.00;4994297;28;20037;-67
2022/04/14 08:23:01;;;;;;;12.85;10.40;;;;;;;19.45;41.39;95426.63;4994543;28;20033;-64
2022/04/14 08:25:34;;;;;;;14.80;11.43;;;;;;;19.04;42.72;95512.38;4994874;28;20106;-64
2022/04/14 08:28:03;;;;;;;15.48;11.25;;;;;;;18.83;43.32;95487.56;4994952;28;20038;-64
2022/04/14 08:30:30;;;;;;;15.73;10.95;;;;;;;19.49;41.27;95478.72;4994282;28;20018;-67
2022/04/14 08:32:58;;;;;;;13.85;11.45;;;;;;;20.16;40.59;95452.31;4994675;28;20106;-64
2022/04/14 08:35:26;;;;;;;16.85;11.32;;;;;;;19.68;40.68;95492.28;4994489;28;20023;-64
2022/04/14 08:37:51;;;;;;;18.95;11.70;;;;;;;19.27;41.49;95482.84;4994693;28;20101;-64
2022/04/14 08:40:21;;;;;;;15.02;11.27;;;;;;;20.42;39.67;95458.97;4994296;28;20109;-64
2022/04/14 08:42:59;;;;;;;18.02;13.02;;;;;;;19.96;39.90;95458.88;4994457;28;20488;-64
2022/04/14 08:45:27;;;;;;;16.88;11.93;;;;;;;20.33;39.49;95515.16;4994500;28;20109;-65
2022/04/14 08:47:54;;;;;;;15.85;11.70;;;;;;;20.57;39.12;95477.03;4994442;28;20049;-65
2022/04/14 08:50:20;;;;;;;16.98;11.75;;;;;;;20.21;40.39;95505.28;4994009;28;20035;-65
2022/04/14 08:52:46;;;;;;;16.52;11.10;;;;;;;19.63;40.92;95479.06;4994327;28;20034;-65
2022/04/14 08:55:14;;;;;;;16.75;12.05;;;;;;;19.60;40.32;95449.28;4993700;28;20022;-63
2022/04/14 08:57:41;;;;;;;16.90;11.15;;;;;;;20.18;39.54;95450.06;4994383;28;20089;-66
2022/04/14 09:00:08;;;;;;;19.08;12.05;;;;;;;19.72;40.23;95457.25;4994177;28;20031;-64
2022/04/14 09:02:34;;;;;;;15.30;10.75;;;;;;;21.53;38.03;95521.09;4994384;28;20022;-64
2022/04/14 09:05:01;;;;;;;19.10;12.02;;;;;;;20.61;38.18;95436.56;4993074;28;20026;-64
2022/04/14 09:07:27;;;;;;;15.98;12.32;;;;;;;21.15;37.58;95452.50;4994758;28;20030;-64
2022/04/14 09:09:52;;;;;;;14.40;11.18;;;;;;;21.17;38.14;95471.06;4994269;28;20036;-63
2022/04/14 09:12:50;;;;;;;17.77;12.23;;;;;;;21.64;37.70;95510.41;4993625;28;20081;-65
2022/04/14 09:15:17;;;;;;;15.43;11.25;;;;;;;21.76;37.40;95502.88;4986443;28;20118;-66
2022/04/14 09:17:43;;;;;;;17.73;11.10;;;;;;;21.60;37.60;95507.69;4994031;28;20360;-64
2022/04/14 09:20:28;;;;;;;13.65;11.52;;;;;;;21.98;36.49;95500.44;4993852;28;20442;-64
2022/04/14 09:23:29;;;;;;;15.77;12.07;;;;;;;21.11;37.32;95454.34;4993694;28;20022;-65
2022/04/14 09:26:03;;;;;;;14.90;11.43;;;;;;;21.90;36.93;95507.66;4971971;28;20085;-68
2022/04/14 09:28:28;;;;;;;20.10;12.13;;;;;;;21.28;37.28;95442.22;4990565;28;20043;-65
2022/04/14 09:31:04;;;;;;;20.90;12.13;;;;;;;22.48;35.47;95487.47;4993294;28;20022;-65
2022/04/14 09:33:36;;;;;;;16.92;11.35;;;;;;;21.89;36.17;95453.88;4993794;28;20041;-65
2022/04/14 09:36:15;;;;;;;12.73;10.77;;;;;;;21.86;37.03;95500.69;4993592;28;20030;-65
2022/04/14 09:39:02;;;;;;;19.45;11.38;;;;;;;21.98;36.46;95428.06;4993537;28;20376;-65
2022/04/14 09:41:29;;;;;;;15.20;11.82;;;;;;;21.89;36.33;95492.56;4993002;28;20081;-65
2022/04/14 09:43:56;;;;;;;17.75;10.95;;;;;;;22.53;34.93;95425.56;4993187;28;20030;-65
2022/04/14 09:46:21;;;;;;;16.30;11.13;;;;;;;21.94;35.90;95445.44;4993551;28;20133;-65
2022/04/14 09:49:08;;;;;;;13.55;9.73;;;;;;;22.26;35.44;95448.53;4993477;28;20058;-65
2022/04/14 09:51:35;;;;;;;14.40;10.38;;;;;;;22.72;33.88;95435.41;4992034;28;20097;-65
2022/04/14 09:54:15;;;;;;;11.50;9.63;;;;;;;22.90;33.79;95434.81;4993413;28;20030;-66
2022/04/14 09:56:55;;;;;;;11.93;9.25;;;;;;;22.83;33.71;95439.00;4993383;28;20337;-65
2022/04/14 09:59:23;;;;;;;13.07;9.63;;;;;;;22.71;33.79;95500.88;4993235;28;20030;-66
2022/04/14 10:02:06;;;;;;;11.77;10.32;;;;;;;23.13;33.14;95445.44;4992982;28;20079;-65
2022/04/14 10:04:34;;;;;;;12.75;10.05;;;;;;;22.25;33.95;95426.06;4992989;28;20109;-65
2022/04/14 10:07:07;;;;;;;10.80;8.95;;;;;;;23.94;32.95;95491.31;4993204;28;20532;-65
2022/04/14 10:09:35;;;;;;;17.88;10.63;;;;;;;22.51;34.44;95435.22;4993280;28;20057;-65
2022/04/14 10:12:01;;;;;;;15.32;10.32;;;;;;;22.74;34.36;95418.78;4992726;28;20460;-64
2022/04/14 10:14:26;;;;;;;10.77;9.63;;;;;;;22.22;33.73;95418.69;4993023;28;20073;-64
2022/04/14 10:16:53;;;;;;;11.55;10.35;;;;;;;22.75;33.50;95423.81;4993124;28;20045;-65
2022/04/14 10:19:19;;;;;;;12.70;10.15;;;;;;;23.53;32.47;95420.09;4992805;28;20034;-65
2022/04/14 10:21:45;;;;;;;15.05;9.85;;;;;;;23.73;32.45;95462.13;4992327;28;20032;-66
2022/04/14 10:24:14;;;;;;;11.98;9.45;;;;;;;23.37;32.61;95425.81;4992630;28;20105;-65
2022/04/14 10:26:40;;;;;;;15.70;9.70;;;;;;;24.19;31.17;95415.34;4992621;28;20029;-66
2022/04/14 10:29:07;;;;;;;9.98;8.98;;;;;;;24.69;30.44;95399.13;4991389;28;20034;-65
2022/04/14 10:31:36;;;;;;;10.15;8.82;;;;;;;24.37;30.87;95423.56;4991899;28;20023;-65
2022/04/14 10:34:04;;;;;;;13.25;10.05;;;;;;;24.25;32.10;95484.47;4992518;28;20040;-66
2022/04/14 10:36:32;;;;;;;15.15;9.90;;;;;;;23.30;32.68;95423.88;4992645;28;20023;-65
2022/04/14 10:38:59;;;;;;;12.55;9.57;;;;;;;23.56;32.51;95441.06;4991529;28;20032;-65
2022/04/14 10:41:31;;;;;;;13.20;9.00;;;;;;;22.79;34.52;95459.88;4991977;28;20364;-65
2022/04/14 10:44:00;;;;;;;10.15;8.82;;;;;;;23.58;32.23;95406.16;4991869;28;20029;-65
2022/04/14 10:46:47;;;;;;;10.77;9.05;;;;;;;23.68;32.63;95497.78;4992410;28;20026;-65
2022/04/14 10:49:22;;;;;;;13.73;8.45;;;;;;;24.12;31.64;95466.97;4991337;28;20102;-65
2022/04/14 10:51:47;;;;;;;12.95;8.63;;;;;;;23.15;32.48;95414.06;4991931;28;20049;-65
2022/04/14 10:54:15;;;;;;;12.35;8.90;;;;;;;24.10;30.65;95420.34;4992074;28;20415;-65
2022/04/14 10:56:45;;;;;;;14.32;9.02;;;;;;;24.13;30.92;95488.31;4992041;28;20027;-65
2022/04/14 10:59:15;;;;;;;12.25;8.75;;;;;;;24.19;31.01;95494.16;4991998;28;20034;-65
2022/04/14 11:01:46;;;;;;;12.95;8.73;;;;;;;23.91;31.35;95481.25;4991659;28;20049;-65
2022/04/14 11:04:28;;;;;;;10.63;8.38;;;;;;;23.25;31.01;95423.44;4990657;28;20129;-65
2022/04/14 11:06:58;;;;;;;10.85;8.25;;;;;;;23.79;30.73;95416.38;4991940;28;20512;-65
2022/04/14 11:09:42;;;;;;;14.43;8.02;;;;;;;24.79;29.69;95471.78;4992036;28;20030;-65
2022/04/14 11:12:08;;;;;;;13.55;8.55;;;;;;;23.56;31.66;95484.50;4991454;28;20610;-65
2022/04/14 11:14:43;;;;;;;8.80;7.82;;;;;;;23.77;30.83;95473.78;4991813;28;20399;-65
2022/04/14 11:17:37;;;;;;;10.15;7.47;;;;;;;23.86;30.62;95493.25;4992026;28;20061;-65
2022/04/14 11:20:44;;;;;;;7.60;6.88;;;;;;;23.60;30.71;95486.09;4991327;28;20033;-65